Time;durP1;ratioP1;P1;durP2;ratioP2;P2;SDS_P1;SDS_P2;PMS_P1;PMS_P2;Temp;Humidity;BMP_temperature;BMP_pressure;BME280_temperature;BME280_humidity;BME280_pressure;Samples;Min_cycle;Max_cycle;Signal;HPM_P1;HPM_P2
2021/12/04 00:01:49;;;;;;;10.38;3.72;;;;;;;6.34;100.00;98329.94;4994967;28;20538;-89
2021/12/04 00:04:33;;;;;;;10.95;4.13;;;;;;;6.36;100.00;98366.25;4993540;28;20485;-90
2021/12/04 00:07:02;;;;;;;8.90;3.10;;;;;;;6.53;100.00;98352.25;4993138;28;20427;-90
2021/12/04 00:09:30;;;;;;;13.00;4.13;;;;;;;6.47;100.00;98330.88;4973102;28;20047;-91
2021/12/04 00:12:05;;;;;;;7.13;2.40;;;;;;;6.78;100.00;98357.66;4988581;28;20120;-90
2021/12/04 00:14:35;;;;;;;7.45;2.33;;;;;;;6.55;100.00;98325.25;4992130;28;20500;-90
2021/12/04 00:17:03;;;;;;;7.78;2.65;;;;;;;6.38;100.00;98302.00;4993320;28;20060;-90
2021/12/04 00:19:31;;;;;;;10.18;2.85;;;;;;;6.36;100.00;98317.69;4993142;28;20064;-90
2021/12/04 00:21:59;;;;;;;5.65;1.92;;;;;;;6.51;100.00;98315.09;4991571;28;20404;-90
2021/12/04 00:24:27;;;;;;;6.25;1.80;;;;;;;6.44;100.00;98325.03;4989343;28;20065;-91
2021/12/04 00:26:54;;;;;;;8.30;2.20;;;;;;;6.39;100.00;98309.72;4973327;28;20053;-90
2021/12/04 00:29:22;;;;;;;3.60;1.60;;;;;;;6.44;100.00;98322.41;4990469;28;20051;-91
2021/12/04 00:31:52;;;;;;;4.32;1.60;;;;;;;6.56;100.00;98316.50;4985498;28;20058;-90
2021/12/04 00:34:25;;;;;;;3.95;1.48;;;;;;;6.42;100.00;98293.09;4989486;28;20057;-90
2021/12/04 00:37:28;;;;;;;3.47;1.50;;;;;;;6.74;100.00;98304.16;4991626;28;20046;-91
2021/12/04 00:50:43;;;;;;;3.53;1.27;;;;;;;6.76;100.00;98278.88;4977724;28;20077;-91
2021/12/04 00:53:10;;;;;;;3.03;1.30;;;;;;;6.87;100.00;98290.38;4991850;28;20057;-91
2021/12/04 00:55:37;;;;;;;2.65;1.10;;;;;;;6.93;100.00;98274.41;4992145;28;20407;-90
2021/12/04 00:58:04;;;;;;;3.53;1.40;;;;;;;7.03;100.00;98291.97;4992279;28;20058;-90
2021/12/04 01:00:31;;;;;;;8.68;1.70;;;;;;;6.87;100.00;98283.44;4991476;28;20042;-91
2021/12/04 01:02:57;;;;;;;3.30;1.10;;;;;;;6.87;100.00;98283.44;4989315;28;20133;-91
2021/12/04 01:05:24;;;;;;;3.67;1.25;;;;;;;6.75;100.00;98285.03;4989136;28;20054;-91
2021/12/04 01:07:51;;;;;;;3.15;1.20;;;;;;;6.71;100.00;98256.69;4974076;28;20050;-91
2021/12/04 01:10:18;;;;;;;3.83;1.30;;;;;;;6.80;100.00;98269.97;4989757;28;20051;-90
2021/12/04 01:12:49;;;;;;;2.05;1.10;;;;;;;6.57;100.00;98234.13;4992238;28;20671;-91
2021/12/04 01:15:16;;;;;;;2.58;1.20;;;;;;;6.51;100.00;98232.75;4992773;28;20121;-91
2021/12/04 01:17:43;;;;;;;4.95;1.35;;;;;;;6.59;100.00;98227.09;4991996;28;20046;-91
2021/12/04 01:20:10;;;;;;;2.17;1.10;;;;;;;6.59;100.00;98242.69;4992621;28;20153;-91
2021/12/04 01:22:39;;;;;;;3.00;1.20;;;;;;;6.84;100.00;98258.44;4986372;28;20053;-91
2021/12/04 01:25:06;;;;;;;3.28;1.20;;;;;;;6.31;100.00;98220.13;4988963;28;20054;-91
2021/12/04 01:27:33;;;;;;;2.67;1.25;;;;;;;6.52;100.00;98231.81;4972946;28;20059;-91
2021/12/04 01:29:59;;;;;;;2.88;1.20;;;;;;;6.48;100.00;98251.16;4988951;28;20046;-90
2021/12/04 01:32:26;;;;;;;2.15;1.30;;;;;;;6.34;100.00;98236.38;5006227;28;20078;-90
2021/12/04 01:34:54;;;;;;;3.30;1.02;;;;;;;6.44;100.00;98247.03;4991372;28;20050;-91
2021/12/04 01:37:21;;;;;;;2.47;1.48;;;;;;;6.23;100.00;98205.84;4991535;28;20650;-91
2021/12/04 01:39:48;;;;;;;3.75;1.23;;;;;;;6.49;100.00;98262.38;4992875;28;20053;-91
2021/12/04 01:42:20;;;;;;;2.08;1.10;;;;;;;6.56;100.00;98258.47;4992032;28;20485;-90
2021/12/04 01:44:48;;;;;;;4.18;1.17;;;;;;;6.40;100.00;98246.38;4993606;28;20498;-91
2021/12/04 01:47:20;;;;;;;2.05;1.00;;;;;;;6.36;100.00;98236.28;4992104;28;20141;-90
2021/12/04 01:49:52;;;;;;;2.38;1.05;;;;;;;6.49;100.00;98246.78;4991382;28;20050;-90
2021/12/04 01:52:19;;;;;;;3.03;1.00;;;;;;;6.56;100.00;98246.28;4977055;28;20058;-89
2021/12/04 01:54:46;;;;;;;2.65;1.13;;;;;;;6.59;100.00;98246.13;4992227;28;20057;-91
2021/12/04 01:57:17;;;;;;;2.03;1.10;;;;;;;6.36;100.00;98226.72;4991134;28;20539;-90
2021/12/04 01:59:45;;;;;;;1.65;0.95;;;;;;;6.44;100.00;98218.44;4992036;28;20056;-90
2021/12/04 02:02:11;;;;;;;1.83;1.00;;;;;;;6.75;100.00;98237.38;4991106;28;20136;-91
2021/12/04 02:04:39;;;;;;;1.73;1.00;;;;;;;6.56;100.00;98220.28;4991643;28;20050;-91
2021/12/04 02:07:07;;;;;;;1.67;0.90;;;;;;;6.52;100.00;98210.19;4991829;28;20133;-91
2021/12/04 02:09:35;;;;;;;1.38;1.00;;;;;;;6.60;100.00;98239.13;4991468;28;20056;-91
2021/12/04 02:12:07;;;;;;;2.67;1.10;;;;;;;6.46;100.00;98216.59;4990628;28;20086;-91
2021/12/04 02:14:39;;;;;;;3.08;1.10;;;;;;;6.37;100.00;98209.34;4991698;28;20416;-90
2021/12/04 02:17:07;;;;;;;1.50;1.00;;;;;;;6.52;100.00;98226.63;4991327;28;20054;-91
2021/12/04 02:19:35;;;;;;;0.95;0.85;;;;;;;6.56;100.00;98211.66;4991652;28;20510;-91
2021/12/04 02:22:02;;;;;;;3.20;1.63;;;;;;;6.49;100.00;98208.59;4990606;28;20462;-90
2021/12/04 02:24:29;;;;;;;2.03;1.10;;;;;;;6.46;100.00;98195.78;4990516;28;20050;-90
2021/12/04 02:26:56;;;;;;;1.90;1.00;;;;;;;6.47;100.00;98203.50;4992486;28;20054;-90
2021/12/04 02:29:22;;;;;;;1.77;1.00;;;;;;;6.23;100.00;98184.19;4991634;28;20058;-91
2021/12/04 02:31:53;;;;;;;1.80;1.00;;;;;;;6.41;100.00;98193.50;4991744;28;20405;-91
2021/12/04 02:34:25;;;;;;;2.50;1.00;;;;;;;6.43;100.00;98232.38;4977230;28;20051;-91
2021/12/04 02:36:53;;;;;;;1.40;0.90;;;;;;;6.38;100.00;98180.66;4987869;28;20065;-91
2021/12/04 02:39:26;;;;;;;1.70;0.90;;;;;;;6.56;100.00;98209.06;4995424;28;20144;-91
2021/12/04 02:41:54;;;;;;;1.42;0.90;;;;;;;6.62;100.00;98212.13;4990990;28;20046;-90
2021/12/04 02:44:23;;;;;;;1.63;1.00;;;;;;;6.49;100.00;98215.56;4976439;28;20062;-89
2021/12/04 02:46:50;;;;;;;1.63;1.00;;;;;;;6.47;100.00;98202.66;4975510;28;20060;-90
2021/12/04 02:49:17;;;;;;;2.28;1.02;;;;;;;6.39;100.00;98192.75;4991256;28;20057;-89
2021/12/04 02:51:44;;;;;;;1.38;0.98;;;;;;;6.51;100.00;98192.91;5003219;28;20065;-90
2021/12/04 02:54:12;;;;;;;1.85;1.08;;;;;;;6.38;100.00;98183.28;4994639;28;20054;-90
2021/12/04 02:56:43;;;;;;;1.30;0.90;;;;;;;6.49;100.00;98197.38;4994666;28;20050;-90
2021/12/04 02:59:11;;;;;;;1.40;1.00;;;;;;;6.45;100.00;98189.75;4993241;28;20058;-90
2021/12/04 03:01:40;;;;;;;2.22;1.00;;;;;;;6.52;100.00;98182.44;4992965;28;20600;-89
2021/12/04 03:04:13;;;;;;;2.17;1.00;;;;;;;6.46;100.00;98194.03;4991458;28;20073;-90
2021/12/04 03:06:45;;;;;;;1.08;0.98;;;;;;;6.41;100.00;98196.09;4976661;28;20162;-90
2021/12/04 03:09:12;;;;;;;1.63;1.00;;;;;;;6.56;100.00;98196.91;4991199;28;20050;-90
2021/12/04 03:11:39;;;;;;;1.55;1.00;;;;;;;6.38;100.00;98185.88;4998823;28;20600;-90
2021/12/04 03:14:07;;;;;;;2.08;1.13;;;;;;;6.40;100.00;98177.97;4974981;28;20059;-89
2021/12/04 03:16:36;;;;;;;1.42;1.00;;;;;;;6.39;100.00;98166.75;4974759;28;20065;-90
2021/12/04 03:19:04;;;;;;;1.23;0.93;;;;;;;6.50;100.00;98170.44;4975889;28;20062;-90
2021/12/04 03:21:33;;;;;;;1.10;0.80;;;;;;;6.56;100.00;98144.91;4981593;28;20049;-90
2021/12/04 03:24:12;;;;;;;1.45;1.00;;;;;;;6.61;100.00;98145.44;4990490;28;20420;-90
2021/12/04 03:26:40;;;;;;;2.15;1.00;;;;;;;6.61;100.00;98152.44;4974888;28;20117;-90
2021/12/04 03:29:12;;;;;;;1.35;0.90;;;;;;;6.68;100.00;98151.09;4973996;28;20046;-91
2021/12/04 03:32:03;;;;;;;1.33;0.90;;;;;;;6.75;100.00;98156.75;4985908;28;20049;-91
2021/12/04 03:40:11;;;;;;;1.27;0.90;;;;;;;6.79;100.00;98145.22;4994852;28;20068;-90
2021/12/04 03:42:41;;;;;;;1.00;0.90;;;;;;;6.80;100.00;98154.72;4994585;28;20050;-90
2021/12/04 03:45:10;;;;;;;1.35;0.90;;;;;;;6.65;100.00;98140.88;4984445;28;20142;-90
2021/12/04 03:47:41;;;;;;;1.33;0.80;;;;;;;6.60;100.00;98128.16;4974648;28;20062;-90
2021/12/04 03:50:08;;;;;;;2.08;0.93;;;;;;;6.14;100.00;98099.03;5006502;28;20408;-90
2021/12/04 03:52:36;;;;;;;1.10;0.90;;;;;;;6.37;100.00;98108.00;4992119;28;20414;-90
2021/12/04 03:55:04;;;;;;;1.55;1.00;;;;;;;6.73;100.00;98127.41;4994150;28;20050;-90
2021/12/04 03:57:32;;;;;;;1.77;1.00;;;;;;;6.82;100.00;98129.44;4995154;28;20050;-90
2021/12/04 03:59:59;;;;;;;1.67;0.98;;;;;;;6.60;100.00;98112.56;4993604;28;20054;-90
2021/12/04 04:02:27;;;;;;;0.90;0.80;;;;;;;6.62;100.00;98105.53;4992217;28;20078;-90
2021/12/04 04:04:55;;;;;;;1.48;1.00;;;;;;;6.66;100.00;98098.38;4994913;28;20133;-90
2021/12/04 04:07:22;;;;;;;1.23;0.90;;;;;;;6.68;100.00;98080.91;4993125;28;20404;-90
2021/12/04 04:09:49;;;;;;;1.00;0.90;;;;;;;6.89;100.00;98111.66;4994158;28;20085;-90
2021/12/04 04:12:15;;;;;;;1.50;1.00;;;;;;;6.80;100.00;98089.69;4992158;28;20050;-90
2021/12/04 04:14:42;;;;;;;1.17;0.90;;;;;;;6.80;100.00;98081.88;4992998;28;20480;-90
2021/12/04 04:17:10;;;;;;;1.75;0.90;;;;;;;6.73;100.00;98076.25;4991664;28;20057;-90
2021/12/04 04:19:36;;;;;;;4.75;1.10;;;;;;;6.71;100.00;98080.72;4983948;28;20046;-90
2021/12/04 04:22:04;;;;;;;3.17;1.00;;;;;;;6.83;100.00;98090.31;4999997;28;20045;-90
2021/12/04 04:24:34;;;;;;;1.27;0.88;;;;;;;6.91;100.00;98102.00;4977669;28;20053;-90
2021/12/04 04:27:01;;;;;;;1.35;0.90;;;;;;;6.80;100.00;98115.69;4989230;28;20061;-90
2021/12/04 04:29:28;;;;;;;2.05;0.90;;;;;;;6.74;100.00;98122.09;4973126;28;20049;-90
2021/12/04 04:31:55;;;;;;;1.00;0.90;;;;;;;6.65;100.00;98081.91;4987372;28;20050;-90
2021/12/04 04:34:32;;;;;;;1.17;0.90;;;;;;;6.96;100.00;98118.97;4978185;28;20061;-90
2021/12/04 04:40:21;;;;;;;0.98;0.90;;;;;;;6.89;100.00;98101.25;5011398;28;20099;-90
2021/12/04 05:01:59;;;;;;;1.00;0.90;;;;;;;6.50;100.00;98082.91;4992249;28;20055;-90
2021/12/04 05:12:51;;;;;;;1.58;1.00;;;;;;;6.52;100.00;98104.44;4993085;28;20053;-90
2021/12/04 05:15:36;;;;;;;1.80;0.90;;;;;;;6.60;100.00;98116.94;4991884;28;20681;-90
2021/12/04 05:21:05;;;;;;;1.48;0.90;;;;;;;6.68;100.00;98117.31;4992703;28;20400;-90
2021/12/04 05:23:50;;;;;;;2.45;1.00;;;;;;;6.79;100.00;98121.81;4991397;28;20046;-90
2021/12/04 05:26:22;;;;;;;1.20;0.85;;;;;;;6.55;100.00;98099.06;4992510;28;20400;-91
2021/12/04 05:28:50;;;;;;;1.48;1.00;;;;;;;6.52;100.00;98106.22;4992524;28;20054;-91
2021/12/04 05:31:17;;;;;;;0.95;0.85;;;;;;;6.47;100.00;98099.53;4992658;28;20049;-90
2021/12/04 05:33:44;;;;;;;1.20;0.90;;;;;;;6.51;100.00;98101.94;4991219;28;20129;-91
2021/12/04 05:36:11;;;;;;;1.13;1.00;;;;;;;6.54;100.00;98088.75;4989029;28;20077;-90
2021/12/04 05:38:38;;;;;;;1.90;1.10;;;;;;;6.52;100.00;98093.22;4998657;28;20070;-91
2021/12/04 05:41:11;;;;;;;1.10;1.00;;;;;;;6.44;100.00;98085.88;4988530;28;20469;-90
2021/12/04 05:43:38;;;;;;;1.05;0.90;;;;;;;6.59;100.00;98102.28;5001357;28;20066;-91
2021/12/04 05:46:18;;;;;;;1.48;0.90;;;;;;;6.40;100.00;98082.63;4989552;28;20050;-91
2021/12/04 05:49:02;;;;;;;0.80;0.80;;;;;;;6.75;100.00;98112.56;5003329;28;20077;-91
2021/12/04 05:54:04;;;;;;;0.80;0.80;;;;;;;6.44;100.00;98104.06;4983035;28;20057;-91
2021/12/04 05:56:33;;;;;;;1.13;0.80;;;;;;;6.36;100.00;98107.16;4992018;28;20373;-91
2021/12/04 05:59:00;;;;;;;1.63;0.90;;;;;;;6.61;100.00;98114.25;4987749;28;20134;-91
2021/12/04 06:01:30;;;;;;;1.10;0.90;;;;;;;6.61;100.00;98110.81;5002925;28;20045;-91
2021/12/04 06:03:58;;;;;;;1.00;0.90;;;;;;;6.51;100.00;98100.16;5004701;28;20100;-91
2021/12/04 06:06:25;;;;;;;1.42;0.90;;;;;;;6.16;100.00;98089.38;4988436;28;20054;-91
2021/12/04 06:08:52;;;;;;;1.60;0.90;;;;;;;6.34;100.00;98116.81;4982486;28;20053;-91
2021/12/04 06:11:19;;;;;;;1.00;0.90;;;;;;;6.12;100.00;98122.50;5001066;28;20057;-90
2021/12/04 06:13:46;;;;;;;1.00;0.90;;;;;;;6.05;100.00;98103.00;4987363;28;20141;-91
2021/12/04 06:16:14;;;;;;;1.88;1.00;;;;;;;6.51;100.00;98127.94;5004337;28;20477;-91
2021/12/04 06:18:45;;;;;;;2.97;1.00;;;;;;;6.53;100.00;98115.66;5005619;28;20105;-91
2021/12/04 06:23:59;;;;;;;1.20;0.90;;;;;;;6.72;100.00;98110.13;4989263;28;20046;-90
2021/12/04 06:26:26;;;;;;;1.00;0.90;;;;;;;6.69;100.00;98131.97;5002928;28;20077;-91
2021/12/04 06:28:53;;;;;;;1.00;0.88;;;;;;;6.77;100.00;98119.31;4987515;28;20129;-90
2021/12/04 06:31:20;;;;;;;1.42;0.90;;;;;;;6.44;100.00;98102.31;4991461;28;20063;-91
2021/12/04 06:33:48;;;;;;;1.48;0.93;;;;;;;6.43;100.00;98115.41;4990009;28;20084;-90
2021/12/04 06:36:15;;;;;;;1.63;0.93;;;;;;;6.52;100.00;98106.22;4992948;28;20050;-90
2021/12/04 06:38:43;;;;;;;0.90;0.80;;;;;;;6.37;100.00;98133.97;4991504;28;20477;-90
2021/12/04 06:41:10;;;;;;;0.98;0.88;;;;;;;6.33;100.00;98111.72;5003424;28;20061;-89
2021/12/04 06:43:40;;;;;;;1.00;0.90;;;;;;;6.43;100.00;98131.03;4993353;28;20050;-90
2021/12/04 06:46:09;;;;;;;0.82;0.80;;;;;;;6.55;100.00;98132.00;4991809;28;20065;-90
2021/12/04 06:56:22;;;;;;;0.80;0.80;;;;;;;6.47;100.00;98133.31;4986702;28;20051;-90
2021/12/04 06:58:51;;;;;;;0.80;0.80;;;;;;;6.32;100.00;98116.09;4994020;28;20050;-90
2021/12/04 07:01:18;;;;;;;0.80;0.80;;;;;;;6.12;100.00;98106.91;4987424;28;20503;-91
2021/12/04 07:03:45;;;;;;;1.33;0.90;;;;;;;6.35;100.00;98141.88;5000375;28;20046;-89
2021/12/04 07:06:12;;;;;;;1.00;0.90;;;;;;;6.51;100.00;98159.13;5009750;28;20061;-90
2021/12/04 07:08:38;;;;;;;1.00;0.90;;;;;;;6.21;100.00;98116.72;4975115;28;20054;-90
2021/12/04 07:11:06;;;;;;;0.80;0.80;;;;;;;6.23;100.00;98120.09;4981796;28;20046;-89
2021/12/04 07:13:34;;;;;;;1.00;0.90;;;;;;;6.25;100.00;98132.97;4995166;28;20065;-89
2021/12/04 07:16:04;;;;;;;1.27;1.10;;;;;;;6.30;100.00;98136.13;4993963;28;20128;-90
2021/12/04 07:18:33;;;;;;;1.13;0.90;;;;;;;6.44;100.00;98148.25;4976357;28;20061;-90
2021/12/04 07:21:00;;;;;;;1.02;0.90;;;;;;;6.30;100.00;98151.72;4997024;28;20050;-89
2021/12/04 07:23:27;;;;;;;1.02;0.90;;;;;;;6.46;100.00;98159.41;4993483;28;20412;-89
2021/12/04 07:25:54;;;;;;;1.30;0.95;;;;;;;6.39;100.00;98151.16;4991453;28;20061;-89
2021/12/04 07:28:21;;;;;;;1.48;0.93;;;;;;;6.30;100.00;98150.88;4995502;28;20069;-89
2021/12/04 07:30:49;;;;;;;1.40;0.90;;;;;;;6.12;100.00;98160.63;4992979;28;20053;-90
2021/12/04 07:33:16;;;;;;;1.27;0.90;;;;;;;6.10;100.00;98136.50;4994044;28;20054;-90
2021/12/04 07:35:42;;;;;;;1.05;0.90;;;;;;;6.22;100.00;98164.34;4994902;28;20054;-89
2021/12/04 07:38:10;;;;;;;0.90;0.90;;;;;;;6.10;100.00;98131.31;4994744;28;20129;-90
2021/12/04 07:40:38;;;;;;;0.90;0.88;;;;;;;6.16;100.00;98142.19;4992204;28;20043;-90
2021/12/04 07:43:05;;;;;;;0.82;0.80;;;;;;;6.20;100.00;98140.22;4989756;28;20051;-89
2021/12/04 07:45:32;;;;;;;1.00;0.90;;;;;;;6.13;100.00;98144.97;4999066;28;20549;-89
2021/12/04 07:47:59;;;;;;;1.00;0.90;;;;;;;6.11;100.00;98143.38;5013559;28;20141;-90
2021/12/04 07:50:26;;;;;;;0.93;0.85;;;;;;;6.41;100.00;98185.69;5010391;28;20050;-89
2021/12/04 07:52:54;;;;;;;1.25;1.00;;;;;;;6.21;100.00;98163.50;4993273;28;20050;-89
2021/12/04 07:55:22;;;;;;;2.08;1.00;;;;;;;6.09;100.00;98164.25;4984764;28;20496;-90
2021/12/04 07:57:49;;;;;;;1.00;0.90;;;;;;;6.18;100.00;98175.84;4992818;28;20047;-91
2021/12/04 08:00:19;;;;;;;1.10;0.90;;;;;;;6.23;100.00;98177.25;4994216;28;20058;-91
2021/12/04 08:02:46;;;;;;;1.00;0.90;;;;;;;6.09;100.00;98156.44;4994999;28;20543;-90
2021/12/04 08:05:18;;;;;;;1.00;0.90;;;;;;;6.36;100.00;98189.50;5000223;28;20058;-89
2021/12/04 08:07:46;;;;;;;1.92;1.10;;;;;;;6.00;100.00;98168.25;5000652;28;20054;-90
2021/12/04 08:10:17;;;;;;;0.80;0.80;;;;;;;6.20;100.00;98180.03;5005770;28;20544;-91
2021/12/04 08:12:45;;;;;;;1.98;0.90;;;;;;;6.17;100.00;98171.59;5001327;28;20046;-91
2021/12/04 08:15:12;;;;;;;1.48;1.00;;;;;;;6.11;100.00;98196.19;5001763;28;20065;-90
2021/12/04 08:17:43;;;;;;;1.48;0.90;;;;;;;6.04;100.00;98192.28;5005555;28;20046;-91
2021/12/04 08:20:12;;;;;;;1.65;1.10;;;;;;;5.73;100.00;98170.66;4998448;28;20058;-91
2021/12/04 08:22:40;;;;;;;1.45;1.00;;;;;;;6.08;100.00;98191.16;5012971;28;20058;-91
2021/12/04 08:25:09;;;;;;;1.00;0.90;;;;;;;5.88;100.00;98190.56;4996432;28;20054;-90
2021/12/04 08:27:37;;;;;;;0.80;0.80;;;;;;;5.57;100.00;98152.56;4997284;28;20050;-90
2021/12/04 08:30:11;;;;;;;2.38;1.10;;;;;;;5.97;100.00;98203.97;4987840;28;20122;-90
2021/12/04 08:32:38;;;;;;;0.95;0.85;;;;;;;5.76;100.00;98200.81;4989538;28;20077;-89
2021/12/04 08:35:09;;;;;;;1.25;0.90;;;;;;;5.72;100.00;98189.78;5008858;28;20102;-90
2021/12/04 08:37:36;;;;;;;1.20;1.00;;;;;;;5.62;100.00;98180.84;4996178;28;20141;-90
2021/12/04 08:40:09;;;;;;;1.00;0.90;;;;;;;5.67;100.00;98164.09;4995152;28;20050;-89
2021/12/04 08:42:37;;;;;;;1.52;1.10;;;;;;;5.48;100.00;98134.94;4990216;28;20054;-89
2021/12/04 08:45:04;;;;;;;1.23;0.93;;;;;;;5.50;100.00;98162.47;4993199;28;20062;-89
2021/12/04 08:47:33;;;;;;;1.00;0.80;;;;;;;5.96;100.00;98199.69;4986493;28;20552;-89
2021/12/04 08:50:00;;;;;;;1.27;1.00;;;;;;;5.98;100.00;98214.22;4993460;28;20155;-91
2021/12/04 08:52:27;;;;;;;2.35;1.00;;;;;;;5.74;100.00;98181.88;4990151;28;20051;-89
2021/12/04 08:54:54;;;;;;;1.88;1.10;;;;;;;5.97;100.00;98185.78;4991242;28;20046;-89
2021/12/04 08:57:21;;;;;;;1.50;1.00;;;;;;;5.68;100.00;98164.91;4995406;28;20616;-89
2021/12/04 08:59:48;;;;;;;1.10;1.00;;;;;;;5.81;100.00;98189.25;4996993;28;20125;-89
2021/12/04 09:02:16;;;;;;;1.65;1.00;;;;;;;5.89;100.00;98210.38;4995684;28;20487;-89
2021/12/04 09:04:46;;;;;;;1.38;1.00;;;;;;;5.93;100.00;98218.84;4995591;28;20057;-89
2021/12/04 09:07:15;;;;;;;4.18;1.10;;;;;;;5.74;100.00;98207.84;4982832;28;20508;-90
2021/12/04 09:09:42;;;;;;;2.97;0.90;;;;;;;5.60;100.00;98199.13;5003807;28;20055;-89
2021/12/04 09:12:22;;;;;;;1.48;0.95;;;;;;;5.80;100.00;98225.69;4995657;28;20062;-90
2021/12/04 09:14:50;;;;;;;1.58;1.00;;;;;;;5.94;100.00;98230.91;4984469;28;20047;-89
2021/12/04 09:17:18;;;;;;;1.00;0.90;;;;;;;5.69;100.00;98205.53;4994653;28;20054;-90
2021/12/04 09:19:46;;;;;;;1.52;0.90;;;;;;;5.44;100.00;98183.59;5004799;28;20058;-90
2021/12/04 09:22:29;;;;;;;2.40;1.05;;;;;;;5.48;100.00;98197.22;4996120;28;20511;-91
2021/12/04 09:25:03;;;;;;;2.55;1.00;;;;;;;5.79;100.00;98218.81;4995146;28;20046;-90
2021/12/04 09:27:47;;;;;;;1.98;1.00;;;;;;;5.67;100.00;98231.59;4996895;28;20050;-90
2021/12/04 10:06:37;;;;;;;1.63;1.00;;;;;;;5.48;100.00;98208.44;4992639;28;20768;-89
2021/12/04 10:32:39;;;;;;;2.53;1.10;;;;;;;5.81;100.00;98228.19;4991351;28;20044;-91
2021/12/04 10:35:05;;;;;;;4.50;1.17;;;;;;;5.97;100.00;98245.53;4992059;28;20074;-87
2021/12/04 10:37:34;;;;;;;2.35;1.20;;;;;;;6.05;100.00;98251.09;4988996;28;20407;-86
2021/12/04 10:40:07;;;;;;;3.83;2.28;;;;;;;5.36;100.00;98190.97;4983531;28;20053;-87
2021/12/04 10:43:02;;;;;;;2.17;1.00;;;;;;;5.50;100.00;98196.19;4983200;28;20150;-87
2021/12/04 10:45:33;;;;;;;2.78;1.30;;;;;;;5.55;100.00;98229.69;4983954;28;20129;-87
2021/12/04 10:48:12;;;;;;;2.30;1.10;;;;;;;5.74;100.00;98216.50;4982427;28;20057;-87
2021/12/04 10:53:24;;;;;;;4.05;1.52;;;;;;;5.68;100.00;98225.47;4983478;28;20378;-89
2021/12/04 11:01:27;;;;;;;3.58;1.65;;;;;;;5.86;100.00;98259.94;4994116;28;20629;-89
2021/12/04 11:04:10;;;;;;;2.85;1.30;;;;;;;5.71;100.00;98208.88;4995440;28;20074;-90
2021/12/04 11:07:00;;;;;;;3.58;1.50;;;;;;;5.69;100.00;98215.91;4988173;28;20062;-90
2021/12/04 11:40:57;;;;;;;4.68;1.70;;;;;;;5.58;100.00;98194.91;5012258;28;20400;-90
2021/12/04 11:43:48;;;;;;;4.97;1.88;;;;;;;5.75;100.00;98231.13;4988030;28;20051;-90
2021/12/04 11:46:22;;;;;;;6.70;2.30;;;;;;;5.74;100.00;98219.09;4991536;28;20138;-89
2021/12/04 11:48:49;;;;;;;4.90;1.60;;;;;;;5.94;100.00;98240.47;4994778;28;20053;-90
2021/12/04 11:51:22;;;;;;;5.60;2.50;;;;;;;5.85;100.00;98221.88;5006191;28;20087;-90
2021/12/04 11:53:51;;;;;;;5.45;1.70;;;;;;;6.17;100.00;98247.75;4997734;28;20069;-92
2021/12/04 11:56:29;;;;;;;5.45;1.92;;;;;;;5.98;100.00;98254.97;4995817;28;20068;-91
2021/12/04 11:58:56;;;;;;;6.72;2.00;;;;;;;5.76;100.00;98206.03;4991480;28;20046;-90
2021/12/04 12:01:23;;;;;;;8.55;2.10;;;;;;;6.19;100.00;98252.88;4994497;28;20449;-90
2021/12/04 12:03:53;;;;;;;6.32;2.05;;;;;;;5.94;100.00;98264.66;4996762;28;20484;-90
2021/12/04 12:06:37;;;;;;;7.00;2.10;;;;;;;6.00;100.00;98240.97;4994085;28;20132;-91
2021/12/04 12:09:06;;;;;;;4.45;1.70;;;;;;;5.75;100.00;98225.94;4993095;28;20057;-89
2021/12/04 12:11:33;;;;;;;8.88;3.58;;;;;;;6.26;100.00;98264.56;4988393;28;20467;-89
2021/12/04 12:14:06;;;;;;;6.38;2.08;;;;;;;5.82;100.00;98229.84;4993834;28;20130;-90
2021/12/04 12:16:39;;;;;;;7.10;2.25;;;;;;;5.77;100.00;98234.50;5007655;28;20064;-89
2021/12/04 12:19:21;;;;;;;7.97;2.67;;;;;;;5.97;100.00;98240.31;4987729;28;20100;-90
2021/12/04 12:22:00;;;;;;;8.85;3.58;;;;;;;6.07;100.00;98264.81;4993127;28;20404;-89
2021/12/04 12:36:14;;;;;;;5.25;1.70;;;;;;;5.80;100.00;98281.03;4982894;28;20046;-88
2021/12/04 12:38:51;;;;;;;5.88;1.50;;;;;;;6.09;100.00;98320.13;4991021;28;20118;-89
2021/12/04 12:41:24;;;;;;;6.47;1.67;;;;;;;5.86;100.00;98314.47;4993501;28;20042;-90
2021/12/04 12:44:12;;;;;;;2.95;1.20;;;;;;;5.89;100.00;98347.19;4992001;28;20839;-89
2021/12/04 12:46:39;;;;;;;4.57;1.42;;;;;;;5.94;100.00;98340.00;4989584;28;20050;-90
2021/12/04 12:49:19;;;;;;;4.15;1.30;;;;;;;5.86;100.00;98327.44;4990338;28;20059;-89
2021/12/04 12:51:54;;;;;;;6.10;1.50;;;;;;;5.66;100.00;98287.00;4990806;28;20507;-87
2021/12/04 12:54:42;;;;;;;5.95;1.60;;;;;;;5.96;100.00;98353.75;4991965;28;20566;-87
2021/12/04 12:57:17;;;;;;;4.78;1.60;;;;;;;6.10;100.00;98360.75;4991998;28;20052;-88
2021/12/04 13:14:18;;;;;;;6.10;1.60;;;;;;;6.11;100.00;98391.03;4994056;28;20064;-88
2021/12/04 13:16:55;;;;;;;6.88;1.58;;;;;;;6.27;100.00;98388.41;4992216;28;20074;-86
2021/12/04 13:19:24;;;;;;;10.57;1.83;;;;;;;5.84;100.00;98331.91;4993694;28;20057;-88
2021/12/04 13:21:53;;;;;;;8.70;1.95;;;;;;;5.75;100.00;98345.38;4990876;28;20057;-88
2021/12/04 13:24:26;;;;;;;4.30;1.60;;;;;;;6.23;100.00;98353.09;4992002;28;20058;-88
2021/12/04 13:26:54;;;;;;;7.00;1.80;;;;;;;6.05;100.00;98378.38;4991668;28;20416;-87
2021/12/04 13:29:24;;;;;;;11.98;1.90;;;;;;;5.83;100.00;98345.78;4992573;28;20510;-88
2021/12/04 13:31:57;;;;;;;7.13;1.85;;;;;;;5.80;100.00;98368.50;4991676;28;20078;-87
2021/12/04 13:34:27;;;;;;;8.05;1.80;;;;;;;6.27;100.00;98409.19;4992423;28;20199;-88
2021/12/04 13:36:55;;;;;;;6.95;2.05;;;;;;;5.69;100.00;98359.53;4992484;28;20054;-87
2021/12/04 13:39:22;;;;;;;5.40;2.45;;;;;;;5.90;100.00;98390.44;4983391;28;20047;-88
2021/12/04 13:41:55;;;;;;;5.65;1.50;;;;;;;6.05;100.00;98425.13;4984965;28;20050;-86
2021/12/04 13:44:25;;;;;;;7.05;1.90;;;;;;;5.94;100.00;98393.72;4994606;28;20510;-87
2021/12/04 13:47:02;;;;;;;8.20;1.52;;;;;;;6.17;100.00;98429.66;5001877;28;20473;-88
2021/12/04 13:49:33;;;;;;;8.30;1.80;;;;;;;6.06;100.00;98399.06;4984221;28;20063;-88
2021/12/04 13:52:10;;;;;;;7.57;1.48;;;;;;;6.11;100.00;98436.94;4989424;28;20504;-88
2021/12/04 13:54:46;;;;;;;5.70;1.63;;;;;;;5.69;100.00;98387.28;4991860;28;20043;-86
2021/12/04 13:57:14;;;;;;;6.78;1.70;;;;;;;6.16;100.00;98455.72;4990891;28;20137;-88
2021/12/04 13:59:42;;;;;;;6.63;1.42;;;;;;;6.14;100.00;98440.19;5002237;28;20050;-87
2021/12/04 14:02:23;;;;;;;3.55;1.40;;;;;;;6.06;100.00;98466.63;4983666;28;20069;-87
2021/12/04 14:05:18;;;;;;;3.63;1.40;;;;;;;6.23;100.00;98472.63;4991890;28;20046;-89
2021/12/04 14:08:00;;;;;;;8.07;2.30;;;;;;;6.26;100.00;98470.69;4989458;28;20473;-88
2021/12/04 14:10:31;;;;;;;6.83;2.13;;;;;;;6.19;100.00;98489.31;4989681;28;20057;-88
2021/12/04 14:13:00;;;;;;;6.80;1.95;;;;;;;6.25;100.00;98458.66;4984825;28;20138;-90
2021/12/04 14:15:28;;;;;;;11.20;1.77;;;;;;;6.17;100.00;98460.81;4977410;28;20077;-90
2021/12/04 14:18:01;;;;;;;5.97;1.60;;;;;;;6.13;100.00;98479.28;4990783;28;20396;-90
2021/12/04 14:20:30;;;;;;;6.10;1.77;;;;;;;6.33;100.00;98458.19;4977805;28;20512;-90
2021/12/04 14:22:58;;;;;;;11.73;2.33;;;;;;;6.47;100.00;98506.81;4992430;28;20508;-88
2021/12/04 14:25:26;;;;;;;4.65;1.67;;;;;;;6.40;100.00;98521.09;4990545;28;20070;-89
2021/12/04 14:27:55;;;;;;;5.57;1.52;;;;;;;6.32;100.00;98529.31;4991513;28;20046;-89
2021/12/04 14:30:25;;;;;;;12.18;3.00;;;;;;;6.11;100.00;98526.13;4992057;28;20054;-89
2021/12/04 14:32:56;;;;;;;6.13;1.52;;;;;;;5.92;100.00;98533.22;4992603;28;20506;-90
2021/12/04 14:35:30;;;;;;;6.00;1.38;;;;;;;5.91;100.00;98519.38;4995372;28;20477;-90
2021/12/04 14:37:59;;;;;;;5.47;2.20;;;;;;;5.83;100.00;98527.59;4994775;28;20468;-88
2021/12/04 14:40:31;;;;;;;5.20;1.20;;;;;;;5.74;100.00;98528.06;4993673;28;20435;-85
2021/12/04 14:42:59;;;;;;;2.27;1.13;;;;;;;5.97;100.00;98560.66;4999137;28;20137;-88
2021/12/04 14:45:30;;;;;;;2.40;1.10;;;;;;;5.88;100.00;98554.16;4995054;28;20484;-88
2021/12/04 14:48:09;;;;;;;3.70;1.42;;;;;;;5.95;100.00;98572.84;4995560;28;21725;-88
2021/12/04 14:50:41;;;;;;;5.05;2.17;;;;;;;5.69;100.00;98574.22;4992936;28;20047;-88
2021/12/04 14:53:11;;;;;;;5.38;1.30;;;;;;;5.69;100.00;98588.03;4991842;28;20072;-86
2021/12/04 14:55:43;;;;;;;4.18;1.30;;;;;;;5.58;100.00;98599.88;4988761;28;20050;-86
2021/12/04 14:58:14;;;;;;;6.60;1.40;;;;;;;5.63;100.00;98600.47;4989229;28;20055;-86